Time;durP1;ratioP1;P1;durP2;ratioP2;P2;SDS_P1;SDS_P2;PMS_P1;PMS_P2;Temp;Humidity;BMP_temperature;BMP_pressure;BME280_temperature;BME280_humidity;BME280_pressure;Samples;Min_cycle;Max_cycle;Signal;HPM_P1;HPM_P2
2021/06/13 00:02:07;;;;;;;7.60;6.90;;;21.20;81.90;;;;;;10500476;28;20247;-77
2021/06/13 00:07:09;;;;;;;7.40;6.80;;;21.10;81.80;;;;;;10504251;28;20231;-78
2021/06/13 00:12:12;;;;;;;7.70;7.00;;;21.10;80.90;;;;;;10503586;28;20235;-78
2021/06/13 00:17:17;;;;;;;8.10;7.30;;;21.10;81.70;;;;;;10494019;28;20201;-77
2021/06/13 00:22:18;;;;;;;7.17;6.57;;;21.10;81.50;;;;;;10495843;28;20225;-77
2021/06/13 00:27:20;;;;;;;7.00;6.40;;;21.10;81.90;;;;;;10486109;28;20226;-77
2021/06/13 00:32:23;;;;;;;7.00;6.40;;;21.10;82.00;;;;;;10504728;28;20243;-77
2021/06/13 00:37:25;;;;;;;7.60;7.03;;;21.20;81.40;;;;;;10501851;28;20197;-77
2021/06/13 00:42:26;;;;;;;8.57;7.60;;;21.20;82.00;;;;;;10504205;28;20234;-78
2021/06/13 00:47:30;;;;;;;7.33;6.60;;;21.20;80.70;;;;;;10502806;28;20250;-77
2021/06/13 00:52:32;;;;;;;6.43;5.83;;;21.20;81.40;;;;;;10503184;28;20599;-77
2021/06/13 00:57:36;;;;;;;6.73;6.23;;;21.20;80.90;;;;;;10500710;28;20201;-77
2021/06/13 01:02:39;;;;;;;7.60;6.93;;;21.20;80.10;;;;;;10479213;28;20243;-78
2021/06/13 01:07:48;;;;;;;6.67;6.10;;;21.20;80.90;;;;;;10489256;28;20270;-77
2021/06/13 01:12:58;;;;;;;6.60;6.10;;;21.20;82.50;;;;;;10498673;28;20217;-77
2021/06/13 01:18:06;;;;;;;6.73;6.23;;;21.20;80.30;;;;;;10478362;28;20197;-78
2021/06/13 01:23:37;;;;;;;7.23;6.57;;;21.20;82.50;;;;;;10484182;28;20224;-78
2021/06/13 01:28:59;;;;;;;7.77;6.77;;;21.10;79.10;;;;;;10484340;28;20308;-78
2021/06/13 01:34:05;;;;;;;6.73;6.10;;;21.00;80.20;;;;;;10468200;28;20244;-78
2021/06/13 01:39:17;;;;;;;7.63;6.93;;;20.90;80.30;;;;;;10483001;28;20544;-77
2021/06/13 01:44:22;;;;;;;6.60;6.00;;;20.90;78.30;;;;;;10485116;28;20228;-78
2021/06/13 01:49:25;;;;;;;5.13;4.63;;;20.80;81.80;;;;;;10487538;28;20197;-78
2021/06/13 01:54:32;;;;;;;7.30;6.60;;;20.80;79.50;;;;;;10486106;28;20220;-78
2021/06/13 01:59:40;;;;;;;7.37;6.67;;;20.70;79.10;;;;;;10468898;28;20253;-77
2021/06/13 02:04:43;;;;;;;7.00;6.30;;;20.70;82.40;;;;;;10480174;28;20529;-77
2021/06/13 02:09:48;;;;;;;7.30;6.60;;;20.60;81.60;;;;;;10478832;28;20657;-77
2021/06/13 02:14:57;;;;;;;6.67;6.00;;;20.60;83.40;;;;;;10493487;28;20216;-77
2021/06/13 02:20:08;;;;;;;7.10;6.50;;;20.60;81.40;;;;;;10499633;28;20212;-78
2021/06/13 02:25:12;;;;;;;7.10;6.50;;;20.60;83.40;;;;;;10499085;28;20634;-78
2021/06/13 02:30:19;;;;;;;6.83;6.23;;;20.60;82.10;;;;;;10482985;28;20672;-77
2021/06/13 02:35:24;;;;;;;6.47;5.90;;;20.60;82.40;;;;;;10500818;28;20206;-77
2021/06/13 02:40:29;;;;;;;6.80;6.30;;;20.70;82.90;;;;;;10499206;28;20270;-78
2021/06/13 02:45:35;;;;;;;6.17;5.50;;;20.70;82.70;;;;;;10499920;28;20228;-77
2021/06/13 02:50:38;;;;;;;6.07;5.57;;;20.70;80.30;;;;;;10499737;28;20228;-77
2021/06/13 02:55:47;;;;;;;6.33;5.73;;;20.70;81.60;;;;;;10499196;28;20279;-78
2021/06/13 03:00:52;;;;;;;6.00;5.40;;;20.70;80.80;;;;;;10506680;28;20217;-77
2021/06/13 03:05:56;;;;;;;6.53;5.87;;;20.70;78.10;;;;;;10499433;28;20773;-77
2021/06/13 03:10:58;;;;;;;7.10;5.77;;;20.70;78.80;;;;;;10500695;28;20745;-77
2021/06/13 03:16:02;;;;;;;9.00;6.50;;;20.70;79.60;;;;;;10497253;28;20649;-77
2021/06/13 03:21:06;;;;;;;6.50;5.50;;;20.70;78.40;;;;;;10481298;28;20278;-77
2021/06/13 03:26:10;;;;;;;7.47;6.37;;;20.60;78.00;;;;;;10497667;28;20221;-78
2021/06/13 03:31:14;;;;;;;6.23;5.73;;;20.60;78.10;;;;;;10498849;28;20221;-78
2021/06/13 03:36:18;;;;;;;7.47;6.80;;;20.60;77.20;;;;;;10481426;28;20215;-77
2021/06/13 03:41:22;;;;;;;5.70;5.10;;;20.60;76.70;;;;;;10497670;28;20572;-77
2021/06/13 03:46:26;;;;;;;7.70;5.40;;;20.50;79.70;;;;;;10499401;28;20216;-77
2021/06/13 03:51:28;;;;;;;5.50;4.80;;;20.50;80.00;;;;;;10497368;28;20236;-78
2021/06/13 03:56:37;;;;;;;5.80;5.30;;;20.50;77.40;;;;;;10497148;28;20203;-77
2021/06/13 04:01:42;;;;;;;5.27;4.87;;;20.40;78.30;;;;;;10497374;28;20221;-77
2021/06/13 04:06:47;;;;;;;5.23;4.40;;;20.40;78.00;;;;;;10498977;28;20651;-78
2021/06/13 04:11:52;;;;;;;7.20;5.10;;;20.40;76.10;;;;;;10488608;28;20614;-77
2021/06/13 04:16:56;;;;;;;5.27;4.77;;;20.30;78.40;;;;;;10494559;28;20224;-78
2021/06/13 04:21:58;;;;;;;6.17;5.67;;;20.30;77.90;;;;;;10496149;28;20303;-78
2021/06/13 04:27:01;;;;;;;10.07;5.90;;;20.30;76.60;;;;;;10497243;28;20254;-77
2021/06/13 04:32:09;;;;;;;5.67;5.23;;;20.20;77.00;;;;;;10496272;28;20640;-78
2021/06/13 04:37:11;;;;;;;5.70;4.97;;;20.10;78.90;;;;;;10478363;28;20197;-77
2021/06/13 04:42:14;;;;;;;5.20;4.70;;;20.00;79.00;;;;;;10496935;28;20221;-78
2021/06/13 04:47:17;;;;;;;9.47;4.97;;;19.90;78.70;;;;;;10496537;28;20216;-77
2021/06/13 04:52:21;;;;;;;8.83;5.53;;;19.90;77.60;;;;;;10500574;28;20236;-78
2021/06/13 04:57:45;;;;;;;5.53;5.03;;;19.80;79.20;;;;;;10489848;28;20292;-78
2021/06/13 05:02:48;;;;;;;8.50;5.20;;;19.80;77.90;;;;;;10495266;28;20666;-78
2021/06/13 05:07:50;;;;;;;6.40;5.37;;;19.70;78.00;;;;;;10494165;28;20263;-78
2021/06/13 05:12:53;;;;;;;5.50;4.83;;;19.70;79.90;;;;;;10504410;28;20220;-77
2021/06/13 05:17:57;;;;;;;7.27;4.80;;;19.70;78.50;;;;;;10517995;28;20200;-77
2021/06/13 05:23:01;;;;;;;4.70;4.30;;;19.70;80.70;;;;;;10504743;28;20582;-78
2021/06/13 05:28:06;;;;;;;5.30;4.80;;;19.70;80.80;;;;;;10503926;28;20281;-78
2021/06/13 05:33:10;;;;;;;6.93;4.67;;;19.70;78.30;;;;;;10504986;28;20250;-78
2021/06/13 05:38:12;;;;;;;6.20;4.80;;;19.70;80.70;;;;;;10504617;28;20211;-78
2021/06/13 05:43:14;;;;;;;4.83;4.37;;;19.70;75.90;;;;;;10502133;28;20223;-78
2021/06/13 05:48:18;;;;;;;5.63;5.13;;;19.70;76.70;;;;;;10502994;28;20303;-78
2021/06/13 05:53:20;;;;;;;5.20;4.70;;;19.70;77.90;;;;;;10503492;28;20722;-78
2021/06/13 05:58:23;;;;;;;5.00;4.50;;;19.70;78.00;;;;;;10503052;28;20192;-78
2021/06/13 06:03:26;;;;;;;4.70;4.30;;;19.70;79.20;;;;;;10502546;28;20303;-77
2021/06/13 06:08:28;;;;;;;6.97;4.27;;;19.70;78.70;;;;;;10500704;28;20477;-78
2021/06/13 06:13:30;;;;;;;5.20;4.70;;;19.80;79.10;;;;;;10500962;28;20701;-78
2021/06/13 06:18:34;;;;;;;6.77;4.10;;;19.80;77.80;;;;;;10500835;28;20200;-78
2021/06/13 06:23:36;;;;;;;4.33;3.60;;;19.90;77.80;;;;;;10498834;28;20635;-78
2021/06/13 06:28:38;;;;;;;5.57;4.07;;;19.90;78.30;;;;;;10499660;28;20220;-78
2021/06/13 06:33:42;;;;;;;4.40;4.00;;;20.00;76.10;;;;;;10500106;28;20208;-78
2021/06/13 06:38:44;;;;;;;3.73;3.43;;;20.00;77.80;;;;;;10499709;28;20196;-78
2021/06/13 06:43:46;;;;;;;4.90;4.40;;;20.20;76.90;;;;;;10501174;28;20223;-78
2021/06/13 06:48:49;;;;;;;6.17;4.17;;;20.40;78.40;;;;;;10499706;28;20212;-78
2021/06/13 06:53:51;;;;;;;5.80;4.10;;;20.60;74.50;;;;;;10499505;28;20311;-78
2021/06/13 06:58:54;;;;;;;5.87;3.97;;;20.90;77.00;;;;;;10498950;28;20204;-78
2021/06/13 07:03:58;;;;;;;4.70;4.30;;;21.30;74.90;;;;;;10499984;28;20295;-78
2021/06/13 07:09:00;;;;;;;6.33;3.83;;;21.70;73.00;;;;;;10499910;28;20604;-78
2021/06/13 07:14:02;;;;;;;6.23;3.90;;;22.00;71.30;;;;;;10499374;28;20753;-78
2021/06/13 07:19:05;;;;;;;5.23;4.73;;;22.40;71.40;;;;;;10498513;28;20192;-78
2021/06/13 07:24:08;;;;;;;4.53;4.13;;;22.80;69.70;;;;;;10492799;28;20786;-78
2021/06/13 07:29:10;;;;;;;5.77;3.83;;;23.30;68.20;;;;;;10497229;28;20266;-78
2021/06/13 07:34:14;;;;;;;5.80;4.57;;;23.60;68.30;;;;;;10490692;28;20330;-78
2021/06/13 07:39:16;;;;;;;4.47;3.87;;;24.00;65.70;;;;;;10488200;28;20275;-78
2021/06/13 07:44:18;;;;;;;4.70;4.30;;;24.50;65.40;;;;;;10499879;28;20278;-78
2021/06/13 07:49:21;;;;;;;4.60;4.17;;;24.90;64.70;;;;;;10500080;28;20212;-78
2021/06/13 07:54:24;;;;;;;5.80;3.70;;;25.40;62.90;;;;;;10508771;28;20231;-78
2021/06/13 07:59:26;;;;;;;3.97;3.67;;;25.80;62.60;;;;;;10497680;28;20192;-78
2021/06/13 08:04:34;;;;;;;5.27;3.83;;;26.20;62.10;;;;;;10497542;28;20232;-78
2021/06/13 08:09:36;;;;;;;4.77;3.83;;;26.50;59.00;;;;;;10496978;28;20214;-78
2021/06/13 08:14:39;;;;;;;8.43;3.50;;;26.90;58.50;;;;;;10495992;28;20227;-78
2021/06/13 08:19:42;;;;;;;3.70;3.40;;;27.30;58.00;;;;;;10496743;28;20748;-78
2021/06/13 08:24:44;;;;;;;3.63;3.33;;;27.80;57.20;;;;;;10490851;28;20592;-78
2021/06/13 08:29:46;;;;;;;5.50;3.60;;;28.10;56.00;;;;;;10477418;28;20232;-78
2021/06/13 08:34:50;;;;;;;4.37;3.77;;;28.30;55.20;;;;;;10463433;28;20249;-78
2021/06/13 08:39:52;;;;;;;4.30;4.00;;;28.50;55.20;;;;;;10462056;28;20205;-78
2021/06/13 08:44:55;;;;;;;5.00;3.60;;;28.70;53.30;;;;;;10466828;28;20304;-78
2021/06/13 08:49:58;;;;;;;8.03;3.63;;;28.70;54.40;;;;;;10470544;28;20202;-78
2021/06/13 08:55:00;;;;;;;4.73;3.60;;;28.60;54.30;;;;;;10473418;28;20243;-78
2021/06/13 09:00:06;;;;;;;4.10;3.77;;;28.90;54.90;;;;;;10468959;28;20275;-78
2021/06/13 09:05:16;;;;;;;3.23;2.97;;;29.20;52.50;;;;;;10471245;28;20249;-78
2021/06/13 09:10:22;;;;;;;3.57;3.27;;;29.50;50.60;;;;;;10468402;28;20208;-78
2021/06/13 09:15:37;;;;;;;4.40;3.40;;;29.70;51.90;;;;;;10473224;28;20204;-79
2021/06/13 09:20:45;;;;;;;6.87;3.70;;;29.90;50.90;;;;;;10475650;28;20841;-78
2021/06/13 09:25:48;;;;;;;4.10;3.57;;;30.10;51.10;;;;;;10491414;28;20669;-78
2021/06/13 09:30:52;;;;;;;4.07;3.20;;;30.40;49.90;;;;;;10474623;28;20216;-78
2021/06/13 09:35:59;;;;;;;6.60;3.70;;;30.90;49.70;;;;;;10470817;28;20195;-79
2021/06/13 09:41:04;;;;;;;3.50;3.23;;;31.70;48.10;;;;;;10475679;28;20740;-79
2021/06/13 09:46:08;;;;;;;3.37;3.07;;;32.40;47.00;;;;;;10497299;28;20223;-79
2021/06/13 09:51:18;;;;;;;3.93;2.80;;;33.50;45.20;;;;;;10480696;28;20243;-78
2021/06/13 09:56:27;;;;;;;3.30;3.00;;;34.90;42.90;;;;;;10485815;28;20214;-79
2021/06/13 10:01:32;;;;;;;3.03;2.80;;;36.70;40.30;;;;;;10506218;28;20273;-79
2021/06/13 10:06:37;;;;;;;2.80;2.60;;;38.20;38.30;;;;;;10505269;28;20228;-79
2021/06/13 10:11:40;;;;;;;3.17;2.97;;;39.30;36.80;;;;;;10504296;28;20216;-79
2021/06/13 10:16:44;;;;;;;3.22;2.90;;;40.20;35.50;;;;;;10504241;28;20221;-79
2021/06/13 10:21:50;;;;;;;2.47;2.38;;;40.90;34.80;;;;;;10500986;28;20217;-79
2021/06/13 10:26:54;;;;;;;3.00;2.80;;;39.70;32.90;;;;;;10503094;28;20247;-78
2021/06/13 10:31:57;;;;;;;4.17;2.60;;;36.70;35.10;;;;;;10511839;28;20244;-78
2021/06/13 10:37:08;;;;;;;4.03;3.13;;;34.00;37.80;;;;;;10504415;28;20204;-78
2021/06/13 10:42:23;;;;;;;4.93;3.33;;;31.90;40.30;;;;;;10486291;28;20220;-78
2021/06/13 10:47:30;;;;;;;5.30;4.17;;;30.30;42.30;;;;;;10498122;28;20232;-78
2021/06/13 10:52:36;;;;;;;3.40;3.20;;;29.00;43.60;;;;;;10472592;28;20236;-77
2021/06/13 10:57:53;;;;;;;3.60;3.30;;;28.00;44.90;;;;;;10467860;28;20192;-78
2021/06/13 11:02:59;;;;;;;2.90;2.70;;;27.10;47.30;;;;;;10476212;28;20223;-77
2021/06/13 11:08:03;;;;;;;3.77;3.43;;;26.50;47.50;;;;;;10470178;28;20243;-78
2021/06/13 11:13:13;;;;;;;3.63;2.97;;;26.00;48.80;;;;;;10482927;28;20299;-79
2021/06/13 11:18:21;;;;;;;3.67;3.37;;;25.60;48.90;;;;;;10465804;28;20195;-79
2021/06/13 11:23:57;;;;;;;4.00;3.60;;;25.30;51.40;;;;;;10479661;28;20245;-78
2021/06/13 11:28:59;;;;;;;3.50;3.30;;;25.00;51.00;;;;;;10472234;28;20225;-77
2021/06/13 11:34:08;;;;;;;3.90;3.33;;;24.80;52.40;;;;;;10468280;28;20307;-77
2021/06/13 11:39:24;;;;;;;4.17;3.77;;;24.60;49.20;;;;;;10469556;28;20284;-77
2021/06/13 11:44:40;;;;;;;3.60;3.40;;;24.40;50.50;;;;;;10473701;28;20251;-78
2021/06/13 11:49:45;;;;;;;3.27;3.07;;;24.30;49.30;;;;;;10474743;28;20216;-78
2021/06/13 11:54:58;;;;;;;4.80;3.37;;;24.20;49.90;;;;;;10461882;28;20796;-78
2021/06/13 12:00:13;;;;;;;4.07;3.57;;;24.20;50.40;;;;;;10460280;28;20200;-78
2021/06/13 12:05:16;;;;;;;4.47;4.17;;;24.10;51.80;;;;;;10455535;28;20197;-79
2021/06/13 12:10:27;;;;;;;3.70;3.50;;;24.00;52.60;;;;;;10462766;28;20688;-79
2021/06/13 12:15:29;;;;;;;3.53;3.33;;;24.10;49.50;;;;;;10473638;28;20196;-78
2021/06/13 12:20:32;;;;;;;5.83;5.17;;;24.10;49.90;;;;;;10461737;28;20212;-78
2021/06/13 12:30:55;;;;;;;4.37;3.27;;;24.20;50.20;;;;;;10468070;28;20224;-78
2021/06/13 12:35:58;;;;;;;3.50;3.30;;;24.30;51.20;;;;;;10466054;28;20568;-78
2021/06/13 12:41:02;;;;;;;3.30;3.00;;;24.20;51.90;;;;;;10486829;28;20224;-78
2021/06/13 12:46:05;;;;;;;3.40;3.20;;;24.20;49.30;;;;;;10469132;28;20213;-79
2021/06/13 12:51:08;;;;;;;3.53;3.23;;;24.20;49.50;;;;;;10474238;28;20675;-78
2021/06/13 12:56:13;;;;;;;3.37;3.10;;;24.20;47.60;;;;;;10485582;28;20195;-78
2021/06/13 13:01:15;;;;;;;3.20;3.00;;;24.20;48.60;;;;;;10481082;28;20220;-78
2021/06/13 13:06:17;;;;;;;4.63;3.50;;;24.20;48.90;;;;;;10485474;28;20292;-78
2021/06/13 13:11:26;;;;;;;3.30;3.10;;;24.20;50.40;;;;;;10481373;28;20707;-77
2021/06/13 13:16:33;;;;;;;3.30;2.53;;;24.20;50.30;;;;;;10478461;28;20254;-78
2021/06/13 13:21:39;;;;;;;2.70;2.50;;;24.20;50.30;;;;;;10438810;28;20299;-79
2021/06/13 13:27:01;;;;;;;2.87;2.70;;;24.30;48.90;;;;;;10485198;28;20299;-77
2021/06/13 13:32:03;;;;;;;3.40;3.10;;;24.30;49.50;;;;;;10488362;28;20224;-79
2021/06/13 13:37:09;;;;;;;3.00;2.80;;;24.30;50.70;;;;;;10474290;28;20207;-79
2021/06/13 13:42:13;;;;;;;3.23;3.03;;;24.30;51.10;;;;;;10478191;28;20221;-78
2021/06/13 13:47:16;;;;;;;3.27;3.07;;;24.30;51.50;;;;;;10476117;28;20221;-79
2021/06/13 13:52:20;;;;;;;3.30;2.80;;;24.30;49.40;;;;;;10463938;28;20256;-79
2021/06/13 13:57:40;;;;;;;2.40;2.30;;;24.30;46.60;;;;;;10481882;28;20669;-79
2021/06/13 14:02:43;;;;;;;3.23;2.90;;;24.30;47.70;;;;;;10478102;28;20219;-79
2021/06/13 14:07:45;;;;;;;2.63;2.40;;;24.30;49.20;;;;;;10490466;28;20216;-78
2021/06/13 14:12:48;;;;;;;2.97;2.67;;;24.30;49.20;;;;;;10473182;28;20743;-79
2021/06/13 14:17:50;;;;;;;2.80;2.60;;;24.40;47.80;;;;;;10489598;28;20220;-78
2021/06/13 14:22:53;;;;;;;2.87;2.67;;;24.30;48.10;;;;;;10464387;28;20266;-78
2021/06/13 14:27:56;;;;;;;2.73;2.53;;;24.20;48.30;;;;;;10482813;28;20256;-78
2021/06/13 14:32:59;;;;;;;4.70;3.10;;;24.20;48.90;;;;;;10473843;28;20217;-79
2021/06/13 14:38:01;;;;;;;4.13;2.50;;;24.20;48.00;;;;;;10462236;28;20563;-78
2021/06/13 14:43:05;;;;;;;3.33;2.70;;;24.20;50.30;;;;;;10481363;28;20229;-78
2021/06/13 14:48:08;;;;;;;2.70;2.50;;;24.20;47.30;;;;;;10475168;28;20205;-79
2021/06/13 14:53:10;;;;;;;2.50;2.23;;;24.20;50.50;;;;;;10475211;28;20229;-76
2021/06/13 14:58:13;;;;;;;2.67;2.53;;;24.20;47.20;;;;;;10467075;28;20193;-78
2021/06/13 15:03:15;;;;;;;2.43;2.33;;;24.20;47.40;;;;;;10455202;28;20274;-78
2021/06/13 15:08:18;;;;;;;2.97;2.77;;;24.20;47.40;;;;;;10465583;28;20221;-79
2021/06/13 15:13:21;;;;;;;2.63;2.43;;;24.10;50.90;;;;;;10467544;28;20236;-79
2021/06/13 15:18:23;;;;;;;2.90;2.70;;;24.10;47.30;;;;;;10475680;28;20215;-78
2021/06/13 15:23:25;;;;;;;2.47;2.37;;;24.20;47.10;;;;;;10480673;28;20303;-78
2021/06/13 15:28:29;;;;;;;3.90;3.50;;;24.20;47.90;;;;;;10480708;28;20664;-78
2021/06/13 15:33:31;;;;;;;2.50;2.40;;;24.20;46.50;;;;;;10474071;28;20736;-78
2021/06/13 15:38:33;;;;;;;2.67;2.47;;;24.20;48.40;;;;;;10460284;28;20236;-79
2021/06/13 15:43:39;;;;;;;2.30;2.20;;;24.30;47.10;;;;;;10477363;28;20236;-76
2021/06/13 15:48:42;;;;;;;3.10;2.90;;;24.30;47.10;;;;;;10481266;28;20303;-78
2021/06/13 15:53:52;;;;;;;2.30;2.20;;;24.30;47.20;;;;;;10468379;28;20627;-77
2021/06/13 15:58:56;;;;;;;2.60;2.40;;;24.30;47.90;;;;;;10466708;28;20194;-77
2021/06/13 16:03:59;;;;;;;2.87;2.70;;;24.20;47.30;;;;;;10459969;28;20236;-78
2021/06/13 16:09:02;;;;;;;3.10;2.80;;;24.30;47.10;;;;;;10464176;28;20209;-78
2021/06/13 16:14:05;;;;;;;2.90;2.70;;;24.10;49.60;;;;;;10460705;28;20216;-76
2021/06/13 16:19:08;;;;;;;2.57;2.47;;;24.10;49.30;;;;;;10489211;28;20557;-78
2021/06/13 16:24:10;;;;;;;3.57;2.43;;;24.10;49.10;;;;;;10472682;28;20300;-77
2021/06/13 16:29:13;;;;;;;2.50;2.30;;;24.10;47.20;;;;;;10478866;28;20223;-79
2021/06/13 16:34:15;;;;;;;2.77;2.57;;;24.10;48.30;;;;;;10473757;28;20252;-77
2021/06/13 16:39:18;;;;;;;2.60;2.43;;;24.10;49.50;;;;;;10467112;28;20658;-77
2021/06/13 16:44:22;;;;;;;2.87;2.67;;;24.00;48.00;;;;;;10464154;28;20228;-77
2021/06/13 16:49:25;;;;;;;3.37;2.53;;;24.10;48.60;;;;;;10463959;28;20255;-76
2021/06/13 16:54:27;;;;;;;2.90;2.70;;;24.00;47.20;;;;;;10555670;22;20232;-79
2021/06/13 16:59:31;;;;;;;2.70;2.50;;;24.00;48.70;;;;;;10535526;28;20228;-81
2021/06/13 17:04:34;;;;;;;2.30;2.10;;;24.00;48.60;;;;;;10532142;28;20230;-80
2021/06/13 17:09:37;;;;;;;2.47;2.27;;;24.00;48.70;;;;;;10517966;28;20308;-80
2021/06/13 17:14:41;;;;;;;2.33;2.13;;;24.00;49.10;;;;;;10538936;28;20581;-81
2021/06/13 17:19:44;;;;;;;2.33;2.13;;;23.90;48.40;;;;;;10533015;28;20196;-80
2021/06/13 17:24:46;;;;;;;2.37;2.13;;;23.90;49.10;;;;;;10548957;28;20220;-80
2021/06/13 17:29:50;;;;;;;2.70;2.50;;;23.90;47.80;;;;;;10538546;28;20247;-80
2021/06/13 17:34:52;;;;;;;2.90;2.70;;;23.90;48.70;;;;;;10539483;28;20304;-79
2021/06/13 17:39:56;;;;;;;2.80;2.20;;;23.80;47.60;;;;;;10545764;28;20623;-82
2021/06/13 17:45:01;;;;;;;3.80;2.07;;;23.80;48.60;;;;;;10539027;28;20228;-80
2021/06/13 17:50:04;;;;;;;2.27;2.07;;;23.80;48.20;;;;;;10526760;28;20215;-82
2021/06/13 17:55:07;;;;;;;2.40;2.20;;;23.80;49.10;;;;;;10543332;28;20228;-82
2021/06/13 18:00:12;;;;;;;2.70;2.50;;;23.70;48.50;;;;;;10544432;28;20295;-81
2021/06/13 18:05:15;;;;;;;2.30;2.10;;;23.70;48.80;;;;;;10529393;28;20247;-81
2021/06/13 18:10:18;;;;;;;2.60;2.40;;;23.60;49.10;;;;;;10521810;28;20247;-80
2021/06/13 18:15:21;;;;;;;2.40;2.23;;;23.60;48.60;;;;;;10534592;28;20196;-81
2021/06/13 18:20:23;;;;;;;2.63;2.43;;;23.50;49.60;;;;;;10538554;28;20287;-82
2021/06/13 18:25:25;;;;;;;2.60;2.40;;;23.50;49.70;;;;;;10544522;28;20545;-82
2021/06/13 18:30:29;;;;;;;2.57;2.47;;;23.40;49.80;;;;;;10544173;28;20220;-81
2021/06/13 18:35:31;;;;;;;2.73;2.53;;;23.40;50.60;;;;;;10542710;28;20207;-80
2021/06/13 18:40:34;;;;;;;3.70;2.87;;;23.30;50.30;;;;;;10544804;28;20208;-81
2021/06/13 18:45:38;;;;;;;2.10;2.00;;;23.30;53.70;;;;;;10517073;28;20200;-80
2021/06/13 18:50:40;;;;;;;2.90;2.70;;;23.20;52.70;;;;;;10500121;28;20220;-81
2021/06/13 18:55:43;;;;;;;2.80;2.60;;;23.20;54.10;;;;;;10498163;28;20204;-80
2021/06/13 19:00:49;;;;;;;2.90;2.70;;;23.10;52.80;;;;;;10525547;28;20218;-81
2021/06/13 19:05:51;;;;;;;3.30;3.00;;;23.10;51.00;;;;;;10522243;28;20209;-83
2021/06/13 19:10:53;;;;;;;2.43;2.23;;;23.00;57.50;;;;;;10521377;28;20230;-81
2021/06/13 19:15:57;;;;;;;2.70;2.50;;;23.00;55.20;;;;;;10524277;28;20203;-80
2021/06/13 19:20:59;;;;;;;3.40;2.40;;;22.90;55.70;;;;;;10516022;28;20222;-79
2021/06/13 19:26:05;;;;;;;2.77;2.57;;;22.70;55.60;;;;;;10501775;28;20675;-80
2021/06/13 19:31:11;;;;;;;3.07;2.87;;;22.60;55.60;;;;;;10501372;28;20220;-80
2021/06/13 19:36:13;;;;;;;2.93;2.70;;;22.50;54.20;;;;;;10488800;28;20192;-81
2021/06/13 19:41:15;;;;;;;2.80;2.60;;;22.40;55.80;;;;;;10506510;28;20212;-82
2021/06/13 19:46:20;;;;;;;2.63;2.53;;;22.40;56.20;;;;;;10507626;28;20224;-83
2021/06/13 19:51:22;;;;;;;2.70;2.60;;;22.30;56.30;;;;;;10507216;28;20243;-82
2021/06/13 19:56:24;;;;;;;4.50;3.87;;;22.10;56.90;;;;;;10519276;28;20208;-81
2021/06/13 20:01:29;;;;;;;3.17;2.87;;;21.90;56.90;;;;;;10523849;28;20217;-81
2021/06/13 20:06:34;;;;;;;3.50;3.20;;;21.70;56.90;;;;;;10504947;28;20242;-82
2021/06/13 20:11:37;;;;;;;4.00;3.60;;;21.60;57.60;;;;;;10519209;28;20224;-82
2021/06/13 20:16:43;;;;;;;3.77;3.13;;;21.50;58.10;;;;;;10506547;28;20197;-81
2021/06/13 20:21:45;;;;;;;3.20;3.00;;;21.30;58.20;;;;;;10518002;28;20298;-81
2021/06/13 20:26:47;;;;;;;3.93;3.40;;;21.20;58.30;;;;;;10540618;28;20231;-82
2021/06/13 20:31:52;;;;;;;3.20;3.00;;;21.10;58.60;;;;;;10531549;28;20286;-80
2021/06/13 20:36:55;;;;;;;3.67;3.37;;;21.00;59.10;;;;;;10532749;28;20287;-82
2021/06/13 20:42:11;;;;;;;3.90;3.60;;;20.80;57.60;;;;;;10526347;28;20239;-80
2021/06/13 20:47:17;;;;;;;3.10;2.90;;;20.70;57.70;;;;;;10516027;28;20692;-80
2021/06/13 20:52:25;;;;;;;3.03;2.83;;;20.60;58.10;;;;;;10515865;28;20248;-81
2021/06/13 20:57:28;;;;;;;4.43;2.70;;;20.50;57.70;;;;;;10516153;28;20199;-81
2021/06/13 21:02:31;;;;;;;2.70;2.50;;;20.50;58.10;;;;;;10524653;28;20288;-81
2021/06/13 21:07:34;;;;;;;3.30;3.00;;;20.50;57.70;;;;;;10508593;28;20230;-81
2021/06/13 21:12:36;;;;;;;4.50;3.27;;;20.40;57.80;;;;;;10511572;28;20722;-81
2021/06/13 21:17:39;;;;;;;3.07;2.93;;;20.30;56.30;;;;;;10506870;28;20472;-80
2021/06/13 21:22:42;;;;;;;3.40;3.07;;;20.20;57.40;;;;;;10511392;28;20306;-80
2021/06/13 21:27:44;;;;;;;3.93;3.63;;;20.10;56.80;;;;;;10509630;28;20270;-81
2021/06/13 21:32:47;;;;;;;3.97;3.60;;;20.10;57.60;;;;;;10512272;28;20216;-81
2021/06/13 21:37:50;;;;;;;4.20;3.90;;;19.90;58.40;;;;;;10510120;28;20257;-82
2021/06/13 21:42:53;;;;;;;4.30;3.20;;;19.80;57.60;;;;;;10513554;28;20222;-81
2021/06/13 21:47:57;;;;;;;3.57;3.27;;;19.70;57.60;;;;;;10512634;28;20200;-80
2021/06/13 21:52:59;;;;;;;3.10;2.90;;;19.60;58.00;;;;;;10503631;28;20234;-81
2021/06/13 21:58:01;;;;;;;4.80;3.33;;;19.60;59.30;;;;;;10504698;28;20353;-80
2021/06/13 22:03:05;;;;;;;5.30;3.10;;;19.60;58.70;;;;;;10505054;28;20274;-80
2021/06/13 22:08:07;;;;;;;2.70;2.50;;;19.50;59.20;;;;;;10522512;28;20211;-80
2021/06/13 22:13:10;;;;;;;3.07;2.87;;;19.50;59.70;;;;;;10530065;28;20331;-80
2021/06/13 22:18:13;;;;;;;3.20;3.00;;;19.50;59.80;;;;;;10497675;28;20193;-81
2021/06/13 22:23:18;;;;;;;3.10;2.77;;;19.40;58.70;;;;;;10502605;28;20307;-80
2021/06/13 22:28:20;;;;;;;3.10;2.90;;;19.30;59.40;;;;;;10509793;28;20239;-81
2021/06/13 22:33:25;;;;;;;2.80;2.57;;;19.30;59.40;;;;;;10504609;28;20311;-80
2021/06/13 22:38:27;;;;;;;3.40;3.00;;;19.20;60.50;;;;;;10510316;28;20212;-81
2021/06/13 22:43:31;;;;;;;3.87;3.10;;;19.20;60.80;;;;;;10520798;28;20216;-80
2021/06/13 22:48:35;;;;;;;3.63;3.13;;;19.20;61.00;;;;;;10534007;28;20216;-82
2021/06/13 22:53:38;;;;;;;3.37;3.07;;;19.10;60.10;;;;;;10543706;28;20535;-82
2021/06/13 22:58:40;;;;;;;3.53;3.20;;;19.10;62.40;;;;;;10537718;28;20196;-80
2021/06/13 23:03:45;;;;;;;3.20;2.90;;;19.10;61.50;;;;;;10524830;28;20679;-80
2021/06/13 23:08:47;;;;;;;2.77;2.57;;;19.00;62.60;;;;;;10543797;28;20207;-81
2021/06/13 23:13:49;;;;;;;3.47;3.10;;;19.00;62.60;;;;;;10541224;28;20303;-80
2021/06/13 23:18:52;;;;;;;3.13;2.90;;;19.00;62.20;;;;;;10559620;28;20266;-79
2021/06/13 23:23:54;;;;;;;3.30;2.57;;;19.00;61.90;;;;;;10543813;28;20277;-80
2021/06/13 23:28:57;;;;;;;3.90;3.20;;;18.90;62.60;;;;;;10540729;28;20225;-81
2021/06/13 23:34:00;;;;;;;3.63;3.17;;;18.90;63.60;;;;;;10522893;28;20216;-80
2021/06/13 23:39:02;;;;;;;2.90;2.70;;;18.80;63.90;;;;;;10525382;28;20224;-81
2021/06/13 23:44:05;;;;;;;2.93;2.73;;;18.70;64.20;;;;;;10488569;28;20639;-81
2021/06/13 23:49:09;;;;;;;3.03;2.80;;;18.70;63.00;;;;;;10505141;28;20220;-81
2021/06/13 23:54:11;;;;;;;3.27;2.97;;;18.60;63.70;;;;;;10539676;28;20822;-81
2021/06/13 23:59:13;;;;;;;3.20;2.90;;;18.60;62.20;;;;;;10541767;28;20498;-81
